Latest Weather Observations for Telfer

IDW60801

Issued at 9:34 am WST Saturday 25 March 2017 (issued every 30 minutes, with the page automatically refreshed every 10 minutes)

About weather observations | Map of weather stations | Latest weather observations for WA | Other Formats
Station Details ID: 013030 Name: TELFER AERO Lat: -21.71 Lon: 122.23 Height: 291.9 m
Data from the previous 72 hours. | See also: Recent months at Telfer
Date/Time
WST
Temp
°C
App
Temp
°C
Dew
Point
°C
Rel
Hum
%
Delta-T
°C
Wind Press
QNH
hPa
Press
MSL
hPa
Rain since
9am
mm
Dir  Spd
km/h
Gust
km/h
Spd
kts
Gust
kts
25/09:30am 29.2 31.0 21.9 64 5.0 W 15 26 8 14 1010.8 1008.5 0.0
25/09:00am 28.9 30.9 22.2 67 4.6 W 15 20 8 11 1010.8 1008.5 0.0
25/08:30am 28.1 30.3 22.6 72 3.8 W 15 20 8 11 1010.6 1008.3 0.0
25/08:13am 27.5 29.6 22.4 73 3.5 WSW 15 20 8 11 1010.6 1008.3 0.0
25/08:00am 26.8 28.9 22.4 77 3.0 WSW 15 19 8 10 1010.6 1008.3 0.0
25/07:52am 26.8 29.4 22.6 78 2.9 W 13 17 7 9 1010.5 1008.2 0.0
25/07:35am 26.3 29.0 22.8 81 2.4 W 13 17 7 9 1010.3 1008.0 0.0
25/07:30am 26.2 29.1 23.1 83 2.1 W 13 15 7 8 1010.2 1007.9 0.0
25/07:00am 25.7 29.1 23.4 87 1.6 W 11 15 6 8 1009.9 1007.6 0.0
25/06:30am 25.4 29.5 24.0 92 1.0 WNW 9 11 5 6 1009.6 1007.3 0.0
25/06:20am 25.3 29.4 23.9 92 1.0 WNW 9 13 5 7 1009.6 1007.3 0.0
25/06:00am 25.4 28.7 23.8 91 1.1 W 13 19 7 10 1009.4 1007.2 0.0
25/05:59am 25.4 28.7 23.8 91 1.1 W 13 19 7 10 1009.4 1007.2 0.0
25/05:30am 25.3 28.8 23.5 90 1.2 W 11 15 6 8 1009.2 1007.0 0.0
25/05:00am 25.4 28.5 23.5 89 1.3 W 13 17 7 9 1008.9 1006.7 0.0
25/04:30am 25.5 27.5 23.6 89 1.3 W 19 24 10 13 1008.6 1006.4 0.0
25/04:00am 25.6 26.9 23.3 87 1.6 W 22 24 12 13 1008.5 1006.3 0.0
25/03:33am 25.6 27.9 23.5 88 1.4 W 17 20 9 11 1008.4 1006.2 0.0
25/03:30am 25.6 28.3 23.5 88 1.4 WNW 15 20 8 11 1008.4 1006.2 0.0
25/03:00am 25.8 28.5 23.5 87 1.6 WNW 15 22 8 12 1008.5 1006.3 0.0
25/02:30am 25.9 28.3 23.6 87 1.6 WNW 17 20 9 11 1008.3 1006.0 0.0
25/02:00am 25.7 29.3 23.7 89 1.4 WNW 11 15 6 8 1008.7 1006.5 0.0
25/01:30am 25.9 28.9 23.4 86 1.7 WNW 13 19 7 10 1008.9 1006.7 0.0
25/01:00am 26.0 29.0 23.3 85 1.9 WNW 13 17 7 9 1009.0 1006.8 0.0
25/12:30am 26.5 28.9 23.0 81 2.4 WNW 15 20 8 11 1009.0 1006.8 0.0
25/12:00am 26.8 29.1 22.8 79 2.7 NW 15 20 8 11 1009.2 1007.0 0.0
 
Date/Time
WST
Temp
°C
App
Temp
°C
Dew
Point
°C
Rel
Hum
%
Delta-T
°C
Wind Press
QNH
hPa
Press
MSL
hPa
Rain since
9am
mm
Dir  Spd
km/h
Gust
km/h
Spd
kts
Gust
kts
24/11:30pm 27.1 29.1 22.9 78 2.9 NW 17 24 9 13 1009.1 1006.9 0.0
24/11:00pm 27.3 29.7 22.9 77 3.0 NW 15 17 8 9 1009.4 1007.2 0.0
24/10:30pm 27.4 29.8 23.0 77 3.0 NW 15 20 8 11 1009.6 1007.3 0.0
24/10:00pm 27.8 30.4 22.7 74 3.5 NW 13 19 7 10 1009.3 1007.1 0.0
24/09:30pm 28.2 30.3 22.4 71 4.0 NW 15 20 8 11 1009.2 1007.0 0.0
24/09:00pm 28.7 31.1 22.2 68 4.4 NW 13 17 7 9 1008.9 1006.7 0.0
24/08:30pm 29.0 31.7 22.2 66 4.6 NW 11 17 6 9 1008.7 1006.5 0.0
24/08:00pm 29.5 31.8 22.0 64 5.1 WNW 13 17 7 9 1008.5 1006.3 0.0
24/07:30pm 29.8 32.1 22.0 63 5.3 WNW 13 17 7 9 1008.2 1005.9 0.0
24/07:00pm 29.9 31.9 21.6 61 5.6 NW 13 17 7 9 1007.7 1005.4 0.0
24/06:30pm 30.4 31.9 21.2 58 6.2 WNW 15 20 8 11 1007.2 1004.9 0.0
24/06:00pm 30.8 31.6 20.7 55 6.8 WNW 17 24 9 13 1006.9 1004.6 0.0
24/05:30pm 31.7 32.4 21.5 54 6.9 WNW 20 28 11 15 1006.6 1004.3 0.0
24/05:00pm 32.2 33.9 21.7 54 7.2 NW 15 26 8 14 1006.2 1003.9 0.0
24/04:30pm 32.6 32.9 20.5 49 8.2 NNW 19 28 10 15 1006.1 1003.8 0.0
24/04:00pm 33.1 31.3 18.8 42 9.5 NNW 26 37 14 20 1006.1 1003.8 0.0
24/03:30pm 33.2 31.9 20.7 47 8.5 NNW 28 43 15 23 1006.2 1003.9 0.0
24/03:00pm 32.6 32.5 21.5 52 7.6 NNW 24 37 13 20 1006.3 1004.0 0.0
24/02:30pm 33.3 31.9 21.1 48 8.3 N 30 46 16 25 1006.2 1003.9 0.0
24/02:05pm 31.9 30.8 21.1 52 7.3 NNW 28 48 15 26 1006.6 1004.3 0.0
24/02:00pm 32.0 33.3 22.7 58 6.5 NNW 20 32 11 17 1006.7 1004.4 0.0
24/01:35pm 32.6 31.4 20.8 49 8.0 N 28 48 15 26 1006.9 1004.6 0.0
24/01:30pm 33.0 32.4 21.2 50 8.0 N 26 43 14 23 1006.8 1004.5 0.0
24/01:00pm 32.4 30.7 21.3 52 7.6 NNW 32 44 17 24 1007.3 1005.0 0.0
24/12:30pm 32.1 30.0 21.0 52 7.5 N 33 48 18 26 1007.8 1005.5 0.0
24/12:00pm 32.0 31.0 21.2 52 7.3 NNW 28 39 15 21 1008.1 1005.8 0.0
24/11:31am 31.7 30.7 21.2 53 7.1 NNW 28 48 15 26 1008.5 1006.3 0.0
24/11:30am 31.7 31.1 21.2 53 7.1 NNW 26 48 14 26 1008.5 1006.3 0.0
24/11:00am 31.8 31.3 22.2 56 6.6 NNW 28 39 15 21 1008.8 1006.6 0.0
24/10:30am 31.0 30.3 21.8 58 6.3 N 28 41 15 22 1009.2 1007.0 0.0
24/10:00am 30.7 29.8 21.5 58 6.3 N 28 37 15 20 1009.4 1007.2 0.0
24/09:32am 30.0 28.9 21.1 59 6.0 N 28 46 15 25 1009.6 1007.3 0.0
24/09:30am 30.3 29.8 22.2 62 5.5 N 28 43 15 23 1009.6 1007.3 0.0
24/09:00am 28.6 28.0 22.6 70 4.1 N 30 43 16 23 1009.6 1007.3 1.0
24/08:30am 28.8 29.4 22.8 70 4.1 N 24 35 13 19 1009.1 1006.9 1.0
24/08:00am 27.6 28.6 22.8 75 3.3 N 22 33 12 18 1009.2 1007.0 1.0
24/07:30am 27.0 26.6 22.4 76 3.1 N 28 37 15 20 1008.8 1006.6 1.0
24/07:00am 26.5 27.9 22.8 80 2.5 N 20 32 11 17 1008.6 1006.4 1.0
24/06:30am 26.1 27.7 22.8 82 2.3 N 19 28 10 15 1008.4 1006.2 1.0
24/06:00am 25.9 27.7 22.6 82 2.3 N 17 24 9 13 1007.8 1005.5 1.0
24/05:30am 26.1 27.4 22.4 80 2.5 N 19 30 10 16 1007.5 1005.2 1.0
24/05:00am 26.2 27.7 22.7 81 2.4 N 19 28 10 15 1007.5 1005.2 1.0
24/04:30am 26.2 28.0 22.5 80 2.5 N 17 28 9 15 1007.5 1005.2 1.0
24/04:00am 26.3 27.4 22.4 79 2.7 NNE 20 33 11 18 1007.3 1005.0 1.0
24/03:30am 26.1 27.8 22.4 80 2.5 N 17 24 9 13 1007.3 1005.0 1.0
24/03:00am 26.2 27.2 22.1 78 2.8 N 20 32 11 17 1007.3 1005.0 1.0
24/02:30am 26.6 27.7 22.0 76 3.1 N 19 30 10 16 1007.6 1005.3 1.0
24/02:00am 26.6 27.5 22.0 76 3.1 NNE 20 28 11 15 1007.7 1005.4 1.0
24/01:30am 26.6 27.5 21.6 74 3.4 NNE 19 28 10 15 1007.9 1005.6 1.0
24/01:00am 26.7 27.7 21.7 74 3.4 NNE 19 26 10 14 1007.9 1005.6 1.0
24/12:30am 26.7 28.3 22.1 76 3.1 NNE 17 24 9 13 1008.2 1005.9 1.0
24/12:00am 26.8 28.3 22.0 75 3.3 N 17 24 9 13 1008.3 1006.0 1.0
 
Date/Time
WST
Temp
°C
App
Temp
°C
Dew
Point
°C
Rel
Hum
%
Delta-T
°C
Wind Press
QNH
hPa
Press
MSL
hPa
Rain since
9am
mm
Dir  Spd
km/h
Gust
km/h
Spd
kts
Gust
kts
23/11:30pm 26.8 28.2 21.8 74 3.4 N 17 24 9 13 1008.2 1005.9 1.0
23/11:00pm 26.9 27.7 21.4 72 3.7 N 19 30 10 16 1008.4 1006.2 1.0
23/10:30pm 27.1 28.7 21.4 71 3.8 N 15 20 8 11 1008.7 1006.5 1.0
23/10:00pm 27.5 28.7 21.5 70 4.1 N 17 24 9 13 1008.8 1006.6 1.0
23/09:30pm 27.3 29.7 22.3 74 3.4 N 13 19 7 10 1008.4 1006.2 1.0
23/09:00pm 27.5 29.9 22.2 73 3.6 N 13 19 7 10 1008.2 1005.9 1.0
23/08:30pm 27.7 29.7 22.2 72 3.7 N 15 20 8 11 1008.1 1005.8 1.0
23/08:00pm 27.8 30.6 23.0 75 3.3 N 13 20 7 11 1007.9 1005.6 1.0
23/07:30pm 27.5 30.9 23.3 78 2.9 N 11 17 6 9 1007.6 1005.3 1.0
23/07:00pm 27.5 30.4 23.1 77 3.0 N 13 17 7 9 1007.6 1005.3 1.0
23/06:30pm 27.2 30.1 23.2 79 2.8 N 13 20 7 11 1007.6 1005.3 1.0
23/06:00pm 26.9 30.0 23.6 82 2.3 N 13 22 7 12 1007.4 1005.1 1.0
23/05:30pm 26.7 29.5 23.6 83 2.1 N 15 22 8 12 1007.6 1005.3 1.0
23/05:00pm 26.6 28.4 24.3 87 1.6 NNW 22 32 12 17 1007.5 1005.2 1.0
23/04:30pm 26.3 26.8 24.0 87 1.6 NW 28 41 15 22 1007.0 1004.7 0.8
23/04:00pm 27.7 25.6 22.4 73 3.6 NNW 37 61 20 33 1006.4 1004.1 0.2
23/03:56pm 28.6 25.9 21.9 67 4.6 N 39 61 21 33 1006.2 1003.9 0.2
23/03:54pm 29.6 26.8 21.8 63 5.3 N 39 61 21 33 1006.1 1003.8 0.2
23/03:31pm 34.7 30.4 18.7 38 10.6 N 39 57 21 31 1005.0 1002.7 0.2
23/03:30pm 34.7 30.0 18.7 38 10.6 N 41 57 22 31 1005.0 1002.7 0.2
23/03:02pm 33.7 30.7 19.0 42 9.7 NE 33 52 18 28 1004.8 1002.5 0.2
23/03:00pm 33.3 29.9 19.0 42 9.5 NE 35 52 19 28 1004.8 1002.5 0.2
23/02:40pm 35.6 32.1 17.8 35 11.7 NE 33 52 18 28 1004.5 1002.2 0.2
23/02:30pm 35.4 31.6 18.0 35 11.4 NE 35 50 19 27 1004.6 1002.3 0.2
23/02:00pm 35.3 32.2 18.4 37 11.2 NE 32 50 17 27 1004.9 1002.6 0.2
23/01:36pm 35.6 32.2 18.2 35 11.5 NE 33 52 18 28 1005.1 1002.8 0.2
23/01:30pm 35.9 33.0 18.9 36 11.3 NE 32 46 17 25 1005.2 1002.9 0.2
23/01:07pm 35.2 33.4 19.6 40 10.5 NE 28 48 15 26 1005.8 1003.6 0.2
23/01:00pm 35.0 33.3 19.0 39 10.7 NE 26 39 14 21 1006.0 1003.7 0.2
23/12:30pm 34.8 33.6 20.0 42 10.0 NE 26 39 14 21 1006.4 1004.1 0.2
23/12:00pm 33.7 31.2 19.7 43 9.4 NE 32 52 17 28 1007.1 1004.8 0.2
23/11:38am 34.1 32.5 20.1 43 9.4 ENE 28 48 15 26 1007.6 1005.3 0.2
23/11:30am 34.4 33.5 20.7 44 9.3 NE 26 41 14 22 1007.8 1005.5 0.2
23/11:00am 33.0 32.4 20.5 47 8.4 ENE 24 37 13 20 1008.4 1006.2 0.2
23/10:30am 32.2 32.3 21.1 52 7.5 ENE 22 30 12 16 1008.9 1006.7 0.2
23/10:00am 31.3 31.8 21.2 55 6.9 NE 20 32 11 17 1009.6 1007.3 0.2
23/09:30am 29.9 30.1 21.3 60 5.8 ENE 22 37 12 20 1010.2 1007.9 0.2
23/09:00am 29.4 29.1 21.1 61 5.6 E 24 35 13 19 1010.6 1008.3 1.2
23/08:30am 28.9 28.8 21.4 64 5.1 E 24 32 13 17 1010.6 1008.3 1.2
23/08:00am 27.8 27.9 21.1 67 4.5 E 22 28 12 15 1010.5 1008.2 1.2
23/07:30am 26.3 27.2 21.5 75 3.2 E 19 22 10 12 1010.4 1008.1 1.2
23/07:00am 25.0 26.1 21.3 80 2.5 E 17 20 9 11 1010.3 1008.0 1.2
23/06:30am 24.4 25.4 21.1 82 2.2 E 17 20 9 11 1010.1 1007.8 1.2
23/06:00am 24.3 25.3 21.0 82 2.2 E 17 24 9 13 1010.1 1007.8 1.2
23/05:30am 24.2 24.8 21.1 83 2.1 E 19 24 10 13 1009.7 1007.4 1.2
23/05:00am 24.3 26.2 22.0 87 1.6 E 15 20 8 11 1009.3 1007.1 1.2
23/04:30am 24.2 26.6 22.3 89 1.3 E 13 17 7 9 1008.9 1006.7 1.2
23/04:00am 24.2 26.6 22.3 89 1.3 E 13 15 7 8 1008.5 1006.3 1.2
23/03:30am 24.3 26.0 21.6 85 1.8 ESE 15 19 8 10 1008.1 1005.8 1.2
23/03:00am 24.5 25.7 21.4 83 2.1 ESE 17 20 9 11 1007.9 1005.6 1.2
23/02:30am 24.7 26.3 21.4 82 2.2 ESE 15 17 8 9 1007.9 1005.6 1.2
23/02:00am 24.8 26.4 21.5 82 2.2 SE 15 19 8 10 1008.2 1005.9 1.2
23/01:30am 24.8 27.6 21.5 82 2.2 ESE 9 13 5 7 1008.5 1006.3 1.2
23/01:00am 24.8 28.4 22.1 85 1.8 SSE 6 7 3 4 1008.8 1006.6 1.2
23/12:30am 24.8 28.0 21.7 83 2.1 SE 7 11 4 6 1009.2 1007.0 1.2
23/12:00am 25.1 27.6 21.0 78 2.7 SSW 9 13 5 7 1009.4 1007.2 1.2
 
Date/Time
WST
Temp
°C
App
Temp
°C
Dew
Point
°C
Rel
Hum
%
Delta-T
°C
Wind Press
QNH
hPa
Press
MSL
hPa
Rain since
9am
mm
Dir  Spd
km/h
Gust
km/h
Spd
kts
Gust
kts
22/11:30pm 25.1 26.7 20.8 77 2.9 SW 13 17 7 9 1009.6 1007.3 1.2
22/11:00pm 25.5 26.2 20.5 74 3.3 SW 17 22 9 12 1009.8 1007.5 1.2
22/10:52pm 25.6 26.1 20.8 75 3.2 SW 19 24 10 13 1009.8 1007.5 1.2
22/10:30pm 25.9 26.2 20.7 73 3.5 SW 20 28 11 15 1009.9 1007.6 1.2
22/10:00pm 26.6 26.0 19.7 66 4.5 W 22 33 12 18 1010.3 1008.0 1.2
22/09:30pm 26.7 26.4 21.9 75 3.2 W 26 33 14 18 1010.3 1008.0 1.2
22/09:10pm 27.5 28.7 21.5 70 4.0 WNW 17 30 9 16 1009.8 1007.5 1.2
22/09:00pm 28.3 31.0 21.3 65 4.7 W 9 19 5 10 1009.6 1007.3 1.2
22/08:30pm 28.3 30.8 21.1 65 4.8 SSW 9 11 5 6 1009.0 1006.8 1.2
22/08:00pm 28.4 31.1 21.4 66 4.7 SW 9 13 5 7 1008.8 1006.6 1.2
22/07:30pm 28.3 29.6 21.6 67 4.5 SW 17 22 9 12 1008.7 1006.5 1.2
22/07:00pm 28.9 30.6 20.9 62 5.4 SSW 13 17 7 9 1008.3 1006.0 1.2
22/06:30pm 29.5 31.2 20.9 60 5.8 SW 13 20 7 11 1007.9 1005.6 1.2
22/06:00pm 30.4 31.4 20.3 54 6.8 SE 15 20 8 11 1007.0 1004.7 1.2
22/05:30pm 33.4 34.8 18.7 41 9.7 NNE 9 13 5 7 1006.6 1004.3 1.2
22/05:00pm 33.2 36.0 19.7 45 9.0 SE 4 7 2 4 1006.4 1004.1 1.2
22/04:30pm 32.9 34.7 18.3 42 9.6 SE 6 9 3 5 1006.3 1004.0 1.2
22/04:00pm 31.9 34.2 18.5 45 8.8 N 4 7 2 4 1006.4 1004.1 1.2
22/03:30pm 34.4 31.4 15.8 33 11.8 NE 26 37 14 20 1006.2 1003.9 1.2
22/03:00pm 35.5 36.7 19.8 39 10.6 N 13 22 7 12 1005.6 1003.4 1.2
22/02:30pm 33.8 36.2 20.9 46 8.8 E 9 13 5 7 1006.1 1003.8 1.2
22/02:00pm 31.2 32.8 22.2 58 6.2 E 17 24 9 13 1006.3 1004.0 1.2
22/01:30pm 31.5 32.3 21.7 56 6.7 E 20 35 11 19 1006.9 1004.6 1.2
22/01:00pm 32.7 35.1 22.2 54 7.2 ESE 13 19 7 10 1007.4 1005.1 1.0
22/12:30pm 32.3 36.0 23.3 59 6.3 ESE 9 15 5 8 1008.0 1005.7 1.0
22/12:00pm 30.5 34.2 23.2 65 5.1 ENE 9 17 5 9 1008.7 1006.5 1.0
22/11:30am 32.3 34.7 21.5 53 7.4 NNE 11 22 6 12 1009.1 1006.9 0.0
22/11:25am 31.6 33.9 22.0 56 6.6 NNE 13 22 7 12 1009.3 1007.1 0.0
22/11:08am 32.7 34.8 20.9 49 8.0 NW 11 22 6 12 1009.6 1007.3 0.0
22/11:00am 33.4 35.3 20.5 46 8.7 NNW 11 19 6 10 1009.8 1007.5 0.0
22/10:30am 33.4 34.9 20.5 46 8.7 NW 13 20 7 11 1010.4 1008.1 0.0
22/10:00am 32.6 35.0 20.8 49 8.0 NNW 9 17 5 9 1010.6 1008.3 0.0

Other Formats:

Comma delimited format used in spreadsheet applications
http://www.bom.gov.au/fwo/IDW60801/IDW60801.94319.axf

JavaScript Object Notation format (JSON) in row-major order
http://www.bom.gov.au/fwo/IDW60801/IDW60801.94319.json